createdAt,value
2022-10-04T00:02:05.820Z,62.75
2022-10-04T00:04:41.032Z,63.17
2022-10-04T00:07:16.087Z,63.48
2022-10-04T00:09:55.741Z,63.50
2022-10-04T00:12:24.584Z,63.15
2022-10-04T00:14:53.604Z,63.45
2022-10-04T00:17:31.712Z,63.57
2022-10-04T00:19:58.692Z,63.70
2022-10-04T00:22:33.095Z,64.31
2022-10-04T00:25:10.037Z,64.25
2022-10-04T00:27:38.260Z,64.33
2022-10-04T00:30:04.843Z,64.32
2022-10-04T00:32:40.599Z,64.38
2022-10-04T00:35:30.959Z,64.22
2022-10-04T00:38:09.577Z,64.22
2022-10-04T00:40:40.641Z,64.27
2022-10-04T00:43:12.504Z,64.08
2022-10-04T00:46:05.451Z,64.64
2022-10-04T00:48:36.234Z,64.72
2022-10-04T00:51:30.304Z,64.63
2022-10-04T00:54:12.385Z,64.79
2022-10-04T00:56:51.662Z,65.07
2022-10-04T00:59:29.334Z,65.07
2022-10-04T01:02:08.121Z,64.97
2022-10-04T01:04:59.635Z,65.43
2022-10-04T01:07:30.382Z,65.91
2022-10-04T01:10:04.294Z,66.03
2022-10-04T01:12:44.124Z,65.80
2022-10-04T01:15:22.118Z,65.91
2022-10-04T01:18:09.546Z,66.35
2022-10-04T01:20:54.813Z,66.58
2022-10-04T01:23:42.082Z,66.79
2022-10-04T01:26:29.551Z,67.16
2022-10-04T01:28:58.973Z,67.15
2022-10-04T01:31:26.407Z,67.33
2022-10-04T01:33:57.138Z,67.23
2022-10-04T01:36:23.868Z,67.50
2022-10-04T01:38:53.654Z,67.27
2022-10-04T01:41:25.546Z,67.31
2022-10-04T01:43:57.398Z,67.25
2022-10-04T01:46:34.222Z,67.35
2022-10-04T01:49:04.098Z,67.38
2022-10-04T01:51:35.576Z,67.66
2022-10-04T01:54:12.068Z,67.79
2022-10-04T01:56:44.076Z,67.40
2022-10-04T01:59:22.745Z,67.09
2022-10-04T02:01:57.735Z,67.19
2022-10-04T02:04:31.643Z,66.88
2022-10-04T02:06:59.974Z,66.98
2022-10-04T02:09:30.043Z,67.06
2022-10-04T02:11:59.689Z,67.02
2022-10-04T02:14:30.041Z,67.36
2022-10-04T02:16:57.079Z,67.36
2022-10-04T02:19:28.198Z,67.92
2022-10-04T02:22:00.391Z,67.60
2022-10-04T02:24:27.385Z,66.94
2022-10-04T02:26:54.417Z,66.84
2022-10-04T02:29:28.701Z,67.13
2022-10-04T02:32:13.878Z,67.29
2022-10-04T02:34:40.937Z,67.33
2022-10-04T02:37:10.228Z,67.53
2022-10-04T02:39:48.380Z,67.27
2022-10-04T02:42:44.467Z,67.14
2022-10-04T02:45:26.668Z,67.01
2022-10-04T02:48:01.545Z,67.17
2022-10-04T02:50:28.209Z,67.38
2022-10-04T02:52:59.819Z,67.27
2022-10-04T02:55:28.666Z,67.40
2022-10-04T02:57:58.567Z,67.47
2022-10-04T03:00:32.491Z,67.30
2022-10-04T03:03:26.557Z,67.40
2022-10-04T03:06:01.032Z,67.33
2022-10-04T03:08:34.153Z,67.57
2022-10-04T03:11:04.406Z,67.70
2022-10-04T03:13:31.412Z,67.48
2022-10-04T03:15:58.147Z,67.63
2022-10-04T03:18:27.344Z,67.71
2022-10-04T03:20:56.332Z,68.06
2022-10-04T03:23:25.177Z,68.17
2022-10-04T03:26:01.261Z,68.25
2022-10-04T03:28:28.920Z,68.25
2022-10-04T03:30:55.879Z,68.67
2022-10-04T03:33:24.632Z,68.92
2022-10-04T03:35:56.168Z,69.57
2022-10-04T03:38:23.762Z,69.41
2022-10-04T03:41:00.995Z,69.62
2022-10-04T03:43:32.109Z,69.81
2022-10-04T03:46:08.200Z,70.07
2022-10-04T03:48:41.246Z,70.04
2022-10-04T03:51:13.780Z,69.99
2022-10-04T03:53:49.041Z,70.00
2022-10-04T03:56:32.307Z,70.10
2022-10-04T03:59:01.475Z,69.93
2022-10-04T04:02:02.452Z,69.82
2022-10-04T04:04:46.279Z,69.77
2022-10-04T04:07:50.792Z,69.85
2022-10-04T04:10:55.652Z,70.25
2022-10-04T04:16:22.517Z,69.71
2022-10-04T04:18:52.718Z,70.05
2022-10-04T04:21:25.773Z,70.41
2022-10-04T04:24:21.178Z,70.46
2022-10-04T04:27:03.651Z,70.49
2022-10-04T04:30:10.088Z,70.17
2022-10-04T04:32:47.575Z,70.22
2022-10-04T04:35:39.548Z,69.92
2022-10-04T04:38:27.738Z,69.45
2022-10-04T04:41:18.656Z,69.41
2022-10-04T04:44:11.437Z,69.37
2022-10-04T04:47:00.551Z,69.29
2022-10-04T04:49:29.511Z,69.27
2022-10-04T04:51:58.162Z,69.27
2022-10-04T04:54:30.446Z,69.02
2022-10-04T04:56:57.716Z,68.86
2022-10-04T04:59:27.880Z,68.58
2022-10-04T05:01:56.903Z,68.58
2022-10-04T05:04:24.132Z,68.45
2022-10-04T05:07:32.652Z,68.63
2022-10-04T05:10:06.961Z,68.41
2022-10-04T05:12:33.678Z,68.16
2022-10-04T05:15:04.845Z,68.14
2022-10-04T05:17:36.199Z,68.05
2022-10-04T05:20:03.290Z,67.70
2022-10-04T05:22:31.168Z,67.95
2022-10-04T05:25:00.656Z,67.66
2022-10-04T05:27:29.058Z,67.59
2022-10-04T05:30:27.822Z,67.63
2022-10-04T05:33:01.858Z,67.30
2022-10-04T05:35:30.213Z,67.65
2022-10-04T05:38:19.845Z,67.84
2022-10-04T05:40:47.351Z,68.03
2022-10-04T05:43:41.037Z,68.17
2022-10-04T05:46:10.658Z,68.06
2022-10-04T05:48:42.706Z,68.36
2022-10-04T05:51:18.555Z,68.74
2022-10-04T05:53:48.424Z,69.01
2022-10-04T05:56:30.163Z,69.06
2022-10-04T05:59:18.620Z,68.96
2022-10-04T06:01:50.933Z,69.32
2022-10-04T06:04:31.712Z,69.50
2022-10-04T06:07:30.171Z,69.10
2022-10-04T06:10:30.904Z,69.20
2022-10-04T06:13:06.594Z,69.15
2022-10-04T06:15:50.682Z,68.98
2022-10-04T06:18:38.779Z,68.77
2022-10-04T06:21:22.340Z,68.41
2022-10-04T06:24:01.088Z,68.57
2022-10-04T06:26:52.921Z,68.76
2022-10-04T06:29:24.907Z,68.66
2022-10-04T06:32:15.899Z,68.84
2022-10-04T06:34:42.525Z,69.12
2022-10-04T06:37:24.682Z,69.41
2022-10-04T06:40:11.979Z,69.20
2022-10-04T06:42:57.374Z,69.24
2022-10-04T06:45:42.397Z,69.41
2022-10-04T06:48:31.398Z,69.27
2022-10-04T06:51:19.915Z,69.02
2022-10-04T06:54:24.032Z,69.05
2022-10-04T06:57:31.911Z,69.27
2022-10-04T07:00:21.555Z,69.25
2022-10-04T07:02:53.416Z,68.75
2022-10-04T07:05:31.012Z,68.37
2022-10-04T07:08:34.180Z,68.39
2022-10-04T07:11:11.550Z,68.10
2022-10-04T07:13:54.039Z,67.86
2022-10-04T07:16:49.331Z,66.41
2022-10-04T07:19:16.498Z,66.79
2022-10-04T07:21:52.014Z,67.10
2022-10-04T07:24:26.849Z,66.72
2022-10-04T07:26:57.386Z,66.37
2022-10-04T07:29:39.939Z,66.32
2022-10-04T07:32:14.497Z,66.45
2022-10-04T07:35:01.368Z,66.33
2022-10-04T07:37:32.482Z,66.69
2022-10-04T07:40:02.238Z,66.18
2022-10-04T07:42:39.912Z,65.34
2022-10-04T07:45:15.370Z,65.32
2022-10-04T07:47:43.247Z,65.57
2022-10-04T07:50:29.286Z,64.86
2022-10-04T07:53:09.602Z,64.00
2022-10-04T07:55:57.128Z,63.06
2022-10-04T07:58:45.406Z,63.09
2022-10-04T08:01:44.573Z,62.27
2022-10-04T08:04:28.411Z,61.89
2022-10-04T08:07:03.582Z,61.15
2022-10-04T08:10:04.012Z,61.21
2022-10-04T08:12:36.764Z,61.52
2022-10-04T08:15:09.350Z,61.08
2022-10-04T08:18:01.220Z,60.54
2022-10-04T08:20:28.771Z,60.21
2022-10-04T08:23:16.788Z,60.07
2022-10-04T08:26:07.421Z,60.52
2022-10-04T08:29:02.059Z,60.39
2022-10-04T08:31:53.160Z,60.75
2022-10-04T08:34:34.784Z,60.43
2022-10-04T08:37:11.906Z,59.64
2022-10-04T08:39:53.450Z,58.94
2022-10-04T08:42:20.647Z,59.57
2022-10-04T08:45:18.226Z,58.18
2022-10-04T08:48:05.172Z,59.03
2022-10-04T08:50:40.287Z,59.35
2022-10-04T08:53:44.604Z,60.10
2022-10-04T08:56:19.673Z,58.68
2022-10-04T08:58:52.445Z,56.79
2022-10-04T09:02:07.287Z,56.01
2022-10-04T09:04:49.116Z,56.17
2022-10-04T09:07:49.995Z,55.49
2022-10-04T09:10:25.006Z,56.90
2022-10-04T09:13:10.948Z,56.13
2022-10-04T09:15:40.663Z,55.21
2022-10-04T09:18:13.514Z,53.46
2022-10-04T09:21:15.865Z,54.64
2022-10-04T09:23:46.028Z,53.36
2022-10-04T09:26:21.738Z,51.58
2022-10-04T09:29:11.484Z,50.64
2022-10-04T09:32:09.563Z,50.97
2022-10-04T09:35:03.995Z,50.78
2022-10-04T09:38:06.574Z,50.24
2022-10-04T09:40:51.470Z,50.57
2022-10-04T09:43:51.506Z,51.14
2022-10-04T09:46:39.495Z,50.92
2022-10-04T09:49:32.837Z,51.45
2022-10-04T09:52:19.784Z,49.77
2022-10-04T09:55:22.949Z,51.23
2022-10-04T09:58:46.307Z,50.85
2022-10-04T10:01:43.992Z,52.30
2022-10-04T10:04:26.464Z,52.31
2022-10-04T10:07:21.667Z,51.03
2022-10-04T10:10:26.343Z,51.38
2022-10-04T10:13:20.133Z,51.70
2022-10-04T10:16:20.136Z,52.36
2022-10-04T10:19:28.237Z,52.46
2022-10-04T10:22:04.273Z,50.99
2022-10-04T10:25:01.763Z,49.89
2022-10-04T10:27:41.901Z,50.45
2022-10-04T10:30:31.089Z,51.27
2022-10-04T10:33:26.386Z,51.82
2022-10-04T10:35:53.468Z,52.06
2022-10-04T10:38:42.320Z,51.18
2022-10-04T10:41:35.825Z,51.67
2022-10-04T10:44:07.881Z,50.15
2022-10-04T10:47:05.792Z,49.47
2022-10-04T10:49:39.355Z,49.31
2022-10-04T10:52:34.196Z,48.70
2022-10-04T10:55:29.817Z,49.00
2022-10-04T10:58:22.745Z,47.16
2022-10-04T11:01:14.237Z,44.74
2022-10-04T11:03:51.184Z,44.39
2022-10-04T11:06:43.172Z,44.74
2022-10-04T11:09:46.810Z,43.84
2022-10-04T11:12:34.096Z,43.65
2022-10-04T11:15:47.938Z,44.04
2022-10-04T11:18:52.608Z,43.34
2022-10-04T11:21:38.076Z,44.35
2022-10-04T11:24:39.929Z,45.28
2022-10-04T11:27:49.148Z,44.02
2022-10-04T11:30:58.318Z,43.37
2022-10-04T11:33:46.294Z,43.41
2022-10-04T11:36:22.566Z,44.02
2022-10-04T11:39:17.259Z,45.32
2022-10-04T11:41:57.772Z,45.49
2022-10-04T11:44:55.346Z,44.62
2022-10-04T11:47:58.769Z,45.08
2022-10-04T11:50:46.500Z,46.00
2022-10-04T11:53:31.340Z,46.53
2022-10-04T11:56:08.260Z,45.74
2022-10-04T11:58:50.288Z,46.47
2022-10-04T12:01:40.459Z,44.91
2022-10-04T12:04:23.250Z,45.27
2022-10-04T12:07:50.537Z,46.10
2022-10-04T12:10:24.650Z,46.38
2022-10-04T12:13:10.242Z,44.66
2022-10-04T12:15:45.361Z,43.51
2022-10-04T12:18:42.934Z,44.37
2022-10-04T12:21:18.908Z,44.25
2022-10-04T12:23:50.893Z,43.52
2022-10-04T12:26:40.408Z,44.71
2022-10-04T12:29:27.550Z,46.14
2022-10-04T12:32:08.470Z,45.73
2022-10-04T12:34:41.098Z,44.42
2022-10-04T12:37:42.871Z,44.97
2022-10-04T12:40:09.553Z,44.55
2022-10-04T12:42:47.035Z,43.86
2022-10-04T12:45:59.425Z,41.01
2022-10-04T12:48:38.134Z,42.65
2022-10-04T12:51:27.724Z,41.51
2022-10-04T12:54:12.141Z,41.64
2022-10-04T12:56:48.876Z,41.24
2022-10-04T12:59:36.208Z,41.33
2022-10-04T13:02:02.962Z,39.32
2022-10-04T13:04:39.243Z,39.05
2022-10-04T13:07:26.202Z,33.94
2022-10-04T13:10:19.352Z,35.29
2022-10-04T13:13:10.498Z,36.29
2022-10-04T13:18:37.292Z,35.66
2022-10-04T13:21:12.106Z,34.49
2022-10-04T13:23:47.908Z,30.54
2022-10-04T13:26:36.479Z,32.38
2022-10-04T13:29:23.881Z,30.46
2022-10-04T13:31:59.547Z,30.85
2022-10-04T13:34:29.344Z,28.82
2022-10-04T13:37:11.267Z,31.61
2022-10-04T13:39:47.095Z,31.83
2022-10-04T13:42:40.663Z,30.04
2022-10-04T13:45:10.512Z,31.33
2022-10-04T13:48:14.381Z,30.44
2022-10-04T13:50:49.562Z,31.46
2022-10-04T13:53:42.233Z,29.88
2022-10-04T13:56:36.687Z,28.81
2022-10-04T13:59:13.582Z,28.06
2022-10-04T14:02:04.659Z,26.99
2022-10-04T14:04:49.512Z,27.84
2022-10-04T14:07:22.331Z,26.76
2022-10-04T14:10:03.260Z,25.63
2022-10-04T14:13:10.737Z,25.42
2022-10-04T14:16:16.827Z,26.16
2022-10-04T14:19:04.053Z,27.95
2022-10-04T14:21:49.201Z,27.23
2022-10-04T14:24:36.680Z,27.26
2022-10-04T14:27:32.839Z,27.97
2022-10-04T14:30:19.616Z,27.58
2022-10-04T14:33:01.414Z,28.42
2022-10-04T14:35:46.452Z,29.58
2022-10-04T14:38:37.606Z,28.88
2022-10-04T14:41:15.950Z,28.87
2022-10-04T14:43:58.568Z,29.12
2022-10-04T14:46:34.244Z,29.59
2022-10-04T14:49:19.802Z,30.04
2022-10-04T14:52:27.200Z,30.53
2022-10-04T14:54:56.494Z,30.51
2022-10-04T14:57:39.080Z,30.91
2022-10-04T15:00:21.840Z,31.63
2022-10-04T15:03:06.861Z,30.81
2022-10-04T15:05:41.984Z,31.39
2022-10-04T15:08:20.974Z,29.27
2022-10-04T15:11:06.578Z,29.52
2022-10-04T15:13:53.129Z,30.17
2022-10-04T15:16:45.569Z,29.72
2022-10-04T15:19:23.820Z,29.63
2022-10-04T15:22:14.561Z,30.06
2022-10-04T15:24:50.861Z,30.46
2022-10-04T15:27:23.764Z,30.32
2022-10-04T15:30:15.183Z,28.00
2022-10-04T15:33:00.276Z,29.19
2022-10-04T15:35:47.834Z,29.91
2022-10-04T15:38:32.858Z,31.40
2022-10-04T15:41:22.639Z,31.51
2022-10-04T15:44:16.856Z,31.39
2022-10-04T15:46:58.593Z,32.28
2022-10-04T15:50:04.415Z,32.15
2022-10-04T15:52:59.065Z,32.55
2022-10-04T15:55:51.561Z,33.07
2022-10-04T15:58:49.336Z,33.12
2022-10-04T16:01:40.391Z,34.63
2022-10-04T16:04:20.256Z,35.98
2022-10-04T16:06:56.954Z,38.10
2022-10-04T16:09:46.986Z,39.12
2022-10-04T16:12:25.843Z,40.30
2022-10-04T16:15:15.158Z,41.75
2022-10-04T16:17:54.039Z,41.88
2022-10-04T16:20:29.814Z,44.25
2022-10-04T16:23:24.100Z,43.00
2022-10-04T16:25:59.885Z,43.36
2022-10-04T16:29:07.632Z,45.01
2022-10-04T16:31:58.453Z,45.35
2022-10-04T16:34:28.301Z,44.35
2022-10-04T16:37:05.186Z,46.88
2022-10-04T16:39:56.566Z,47.63
2022-10-04T16:42:26.082Z,47.70
2022-10-04T16:44:59.127Z,46.91
2022-10-04T16:47:35.507Z,46.95
2022-10-04T16:50:04.953Z,49.07
2022-10-04T16:52:57.471Z,48.38
2022-10-04T16:55:43.693Z,48.97
2022-10-04T16:58:28.745Z,50.72
2022-10-04T17:01:25.810Z,51.91
2022-10-04T17:04:04.879Z,50.97
2022-10-04T17:06:51.593Z,52.80
2022-10-04T17:09:50.398Z,51.83
2022-10-04T17:12:23.366Z,50.78
2022-10-04T17:15:15.461Z,52.28
2022-10-04T17:17:51.662Z,51.81
2022-10-04T17:20:43.128Z,52.14
2022-10-04T17:23:35.817Z,51.78
2022-10-04T17:26:22.299Z,53.65
2022-10-04T17:29:04.248Z,52.63
2022-10-04T17:31:44.298Z,52.41
2022-10-04T17:34:36.328Z,54.21
2022-10-04T17:37:29.058Z,53.32
2022-10-04T17:40:17.355Z,54.32
2022-10-04T17:43:15.339Z,53.77
2022-10-04T17:46:07.909Z,54.83
2022-10-04T17:49:06.190Z,54.11
2022-10-04T17:51:58.961Z,54.92
2022-10-04T17:54:50.395Z,54.12
2022-10-04T17:57:25.504Z,54.17
2022-10-04T17:59:59.113Z,56.13
2022-10-04T18:02:38.556Z,56.05
2022-10-04T18:05:18.150Z,56.31
2022-10-04T18:07:48.924Z,54.90
2022-10-04T18:10:38.679Z,57.53
2022-10-04T18:13:29.551Z,57.83
2022-10-04T18:16:16.664Z,56.83
2022-10-04T18:18:44.531Z,55.87
2022-10-04T18:21:19.404Z,56.22
2022-10-04T18:23:57.580Z,56.23
2022-10-04T18:26:29.299Z,56.27
2022-10-04T18:28:58.750Z,55.96
2022-10-04T18:31:40.790Z,57.32
2022-10-04T18:34:10.573Z,56.24
2022-10-04T18:37:05.824Z,56.49
2022-10-04T18:39:44.717Z,57.09
2022-10-04T18:42:26.915Z,57.92
2022-10-04T18:44:59.062Z,57.16
2022-10-04T18:47:38.360Z,58.09
2022-10-04T18:50:22.681Z,57.76
2022-10-04T18:53:14.809Z,57.70
2022-10-04T18:55:53.611Z,58.06
2022-10-04T18:59:04.097Z,58.29
2022-10-04T19:02:01.773Z,57.71
2022-10-04T19:04:37.217Z,57.74
2022-10-04T19:07:53.015Z,57.77
2022-10-04T19:10:38.911Z,57.50
2022-10-04T19:13:08.622Z,57.58
2022-10-04T19:15:58.295Z,58.01
2022-10-04T19:18:49.746Z,57.72
2022-10-04T19:21:19.817Z,57.71
2022-10-04T19:24:25.473Z,57.93
2022-10-04T19:26:59.601Z,58.09
2022-10-04T19:30:03.920Z,58.36
2022-10-04T19:32:48.492Z,58.24
2022-10-04T19:35:30.314Z,58.92
2022-10-04T19:38:03.091Z,58.50
2022-10-04T19:40:44.706Z,58.66
2022-10-04T19:43:20.567Z,59.04
2022-10-04T19:46:11.481Z,58.92
2022-10-04T19:48:50.614Z,58.88
2022-10-04T19:51:34.368Z,59.10
2022-10-04T19:54:15.903Z,59.21
2022-10-04T19:56:47.078Z,59.08
2022-10-04T19:59:19.023Z,59.49
2022-10-04T20:01:46.267Z,59.29
2022-10-04T20:04:35.992Z,59.39
2022-10-04T20:07:11.769Z,59.40
2022-10-04T20:09:41.263Z,59.50
2022-10-04T20:12:33.592Z,60.26
2022-10-04T20:15:14.838Z,60.01
2022-10-04T20:17:42.513Z,59.81
2022-10-04T20:20:15.904Z,60.12
2022-10-04T20:22:56.320Z,60.50
2022-10-04T20:25:49.829Z,60.36
2022-10-04T20:28:28.915Z,60.52
2022-10-04T20:31:00.183Z,60.31
2022-10-04T20:33:33.267Z,60.32
2022-10-04T20:36:33.025Z,60.45
2022-10-04T20:39:00.596Z,60.34
2022-10-04T20:41:50.293Z,60.33
2022-10-04T20:44:42.347Z,60.40
2022-10-04T20:47:39.449Z,60.53
2022-10-04T20:50:11.991Z,60.42
2022-10-04T20:52:44.755Z,60.42
2022-10-04T20:55:25.229Z,60.42
2022-10-04T20:57:51.965Z,60.61
2022-10-04T21:00:23.512Z,60.23
2022-10-04T21:02:50.579Z,60.48
2022-10-04T21:05:24.585Z,60.65
2022-10-04T21:08:15.568Z,61.23
2022-10-04T21:11:03.436Z,62.00
2022-10-04T21:13:48.969Z,61.64
2022-10-04T21:16:46.860Z,61.79
2022-10-04T21:19:32.258Z,62.00
2022-10-04T21:22:06.610Z,61.55
2022-10-04T21:24:37.214Z,61.57
2022-10-04T21:27:08.725Z,61.52
2022-10-04T21:29:40.712Z,61.70
2022-10-04T21:32:07.480Z,61.69
2022-10-04T21:34:52.527Z,61.95
2022-10-04T21:37:20.773Z,62.45
2022-10-04T21:39:47.539Z,62.71
2022-10-04T21:42:14.291Z,62.54
2022-10-04T21:44:43.610Z,63.24
2022-10-04T21:47:12.430Z,64.92
2022-10-04T21:49:41.437Z,64.13
2022-10-04T21:52:12.703Z,64.15
2022-10-04T21:54:39.379Z,64.09
2022-10-04T21:57:08.371Z,63.57
2022-10-04T21:59:37.089Z,63.46
2022-10-04T22:02:04.232Z,63.08
2022-10-04T22:04:33.316Z,63.06
2022-10-04T22:07:00.050Z,63.11
2022-10-04T22:09:26.737Z,63.20
2022-10-04T22:11:58.202Z,63.51
2022-10-04T22:14:24.869Z,63.18
2022-10-04T22:16:51.859Z,63.11
2022-10-04T22:19:20.859Z,63.08
2022-10-04T22:21:47.526Z,63.29
2022-10-04T22:24:21.521Z,63.22
2022-10-04T22:26:48.941Z,63.16
2022-10-04T22:29:19.040Z,63.40
2022-10-04T22:31:52.015Z,63.27
2022-10-04T22:34:20.778Z,63.69
2022-10-04T22:36:49.080Z,63.85
2022-10-04T22:39:19.551Z,64.09
2022-10-04T22:41:56.407Z,64.03
2022-10-04T22:44:40.595Z,64.01
2022-10-04T22:47:12.491Z,64.25
2022-10-04T22:49:46.112Z,64.68
2022-10-04T22:52:23.715Z,64.96
2022-10-04T22:54:53.898Z,64.75
2022-10-04T22:57:23.996Z,64.66
2022-10-04T22:59:53.270Z,64.66
2022-10-04T23:02:26.640Z,64.86
2022-10-04T23:04:55.841Z,64.46
2022-10-04T23:07:26.031Z,64.49
2022-10-04T23:09:52.752Z,64.68
2022-10-04T23:12:19.425Z,64.72
2022-10-04T23:14:46.497Z,64.75
2022-10-04T23:17:27.626Z,65.03
2022-10-04T23:20:02.456Z,64.83
2022-10-04T23:22:31.690Z,64.78
2022-10-04T23:24:58.509Z,64.94
2022-10-04T23:27:28.480Z,64.90
2022-10-04T23:30:02.894Z,65.05
2022-10-04T23:32:33.449Z,65.20
2022-10-04T23:35:01.688Z,65.29
2022-10-04T23:37:31.549Z,65.47
2022-10-04T23:40:01.027Z,65.56
2022-10-04T23:42:31.722Z,65.83
2022-10-04T23:44:59.989Z,65.59
2022-10-04T23:47:36.906Z,65.64
2022-10-04T23:50:18.821Z,65.78
2022-10-04T23:52:45.707Z,65.73
2022-10-04T23:55:24.701Z,65.99
2022-10-04T23:57:51.491Z,65.49
